Aviation Digital Data Service (ADDS)

Output produced by METARs form (1442 UTC 20 September 2017)
found at http://www.aviationweather.gov/adds/metars/
 
TAF MHLC 201025Z 2012/2112 00000KT 9999 FEW024 SCT090 TX33/2019Z TN23/2112Z 
     BECMG 2014/2016 01008KT SCT026TCU 
     TEMPO 2020/2102 11006KT 4000 TSRA SCT024CB BKN080 
     BECMG 2102/2104 8000 VCSH 
     BECMG 2104/2106 9999 NSW SCT022 SCT080
       
TAF MHLM 201025Z 2012/2112 00000KT 9999 FEW024 TX35/2020Z TN24/2112Z 
     BECMG 2015/2017 35010KT SCT028TCU 
     TEMPO 2021/2103 6000 TSRA SCT025CB BKN080 
     BECMG 2103/2105 00000KT 9999 NSW SCT022 SCT080
       
TAF MHRO 201025Z 2012/2112 14008KT 9999 FEW022CB SCT080 TX33/2019Z TN27/2112Z 
     BECMG 2015/2017 08012KT SCT020TCU 
     PROB30 
     TEMPO 2023/2103 7000 VCSH SCT018TCU SCT080 
     BECMG 2103/2105 16006KT 9999 NSW FEW020
       
TAF MHSC 201342Z 2013/2119 VRB06KT 9999 SCT020 BKN050 QNH2998INS 
     BECMG 2018/2019 VRB06KT 8000 -SHRA VCTS SCT020CB BKN100 QNH2991INS 
     TEMPO 2023/2104 -TSRA OVC020CB 
     BECMG 2106/2107 VRB06KT 9999 NSW BKN040 QNH2994INS TX32/2023Z TN20/2109Z
       
TAF MHTG 201025Z 2012/2112 00000KT 5000 BR FEW005 SCT022 TX28/2019Z TN18/2112Z 
     BECMG 2014/2016 19005KT 9999 NSW SCT026TCU SCT090 
     TEMPO 2019/2101 5000 TSRA SCT028CB SCT030TCU SCT080 
     BECMG 2103/2105 00000KT 7000 VCSH SCT024 BKN080 
     BECMG 2105/2107 9999 NSW FEW008 BKN024 
     BECMG 2110/2112 6000 FEW006
       
TAF MHSC 201342Z 2013/2119 VRB06KT 9999 SCT020 BKN050 QNH2998INS 
     BECMG 2018/2019 VRB06KT 8000 -SHRA VCTS SCT020CB BKN100 QNH2991INS 
     TEMPO 2023/2104 -TSRA OVC020CB 
     BECMG 2106/2107 VRB06KT 9999 NSW BKN040 QNH2994INS TX32/2023Z TN20/2109Z
       
TAF MHLC 201025Z 2012/2112 00000KT 9999 FEW024 SCT090 TX33/2019Z TN23/2112Z 
     BECMG 2014/2016 01008KT SCT026TCU 
     TEMPO 2020/2102 11006KT 4000 TSRA SCT024CB BKN080 
     BECMG 2102/2104 8000 VCSH 
     BECMG 2104/2106 9999 NSW SCT022 SCT080
       
TAF MHLM 201025Z 2012/2112 00000KT 9999 FEW024 TX35/2020Z TN24/2112Z 
     BECMG 2015/2017 35010KT SCT028TCU 
     TEMPO 2021/2103 6000 TSRA SCT025CB BKN080 
     BECMG 2103/2105 00000KT 9999 NSW SCT022 SCT080
       
TAF MHRO 201025Z 2012/2112 14008KT 9999 FEW022CB SCT080 TX33/2019Z TN27/2112Z 
     BECMG 2015/2017 08012KT SCT020TCU 
     PROB30 
     TEMPO 2023/2103 7000 VCSH SCT018TCU SCT080 
     BECMG 2103/2105 16006KT 9999 NSW FEW020
       
TAF MHSC 201342Z 2013/2119 VRB06KT 9999 SCT020 BKN050 QNH2998INS 
     BECMG 2018/2019 VRB06KT 8000 -SHRA VCTS SCT020CB BKN100 QNH2991INS 
     TEMPO 2023/2104 -TSRA OVC020CB 
     BECMG 2106/2107 VRB06KT 9999 NSW BKN040 QNH2994INS TX32/2023Z TN20/2109Z
       
TAF MHTG 201025Z 2012/2112 00000KT 5000 BR FEW005 SCT022 TX28/2019Z TN18/2112Z 
     BECMG 2014/2016 19005KT 9999 NSW SCT026TCU SCT090 
     TEMPO 2019/2101 5000 TSRA SCT028CB SCT030TCU SCT080 
     BECMG 2103/2105 00000KT 7000 VCSH SCT024 BKN080 
     BECMG 2105/2107 9999 NSW FEW008 BKN024 
     BECMG 2110/2112 6000 FEW006
       
TAF MHLC 201025Z 2012/2112 00000KT 9999 FEW024 SCT090 TX33/2019Z TN23/2112Z 
     BECMG 2014/2016 01008KT SCT026TCU 
     TEMPO 2020/2102 11006KT 4000 TSRA SCT024CB BKN080 
     BECMG 2102/2104 8000 VCSH 
     BECMG 2104/2106 9999 NSW SCT022 SCT080
       
TAF MHLM 201025Z 2012/2112 00000KT 9999 FEW024 TX35/2020Z TN24/2112Z 
     BECMG 2015/2017 35010KT SCT028TCU 
     TEMPO 2021/2103 6000 TSRA SCT025CB BKN080 
     BECMG 2103/2105 00000KT 9999 NSW SCT022 SCT080
       
TAF MHRO 201025Z 2012/2112 14008KT 9999 FEW022CB SCT080 TX33/2019Z TN27/2112Z 
     BECMG 2015/2017 08012KT SCT020TCU 
     PROB30 
     TEMPO 2023/2103 7000 VCSH SCT018TCU SCT080 
     BECMG 2103/2105 16006KT 9999 NSW FEW020
       
TAF MHTG 201025Z 2012/2112 00000KT 5000 BR FEW005 SCT022 TX28/2019Z TN18/2112Z 
     BECMG 2014/2016 19005KT 9999 NSW SCT026TCU SCT090 
     TEMPO 2019/2101 5000 TSRA SCT028CB SCT030TCU SCT080 
     BECMG 2103/2105 00000KT 7000 VCSH SCT024 BKN080 
     BECMG 2105/2107 9999 NSW FEW008 BKN024 
     BECMG 2110/2112 6000 FEW006